• Join FlightAware (Why Join?)
  • Login
  • US Flag 
04:59PM EDT


 

Airport Tracker/Info


-or-


 

Live Flight TrackerFlight Track Log ✈ UPS1121 ✈ 21-Jun-2013 ✈ KBDL - KSDF

Flight Track Log - Related Links

Times and Time Zones

All times are in EDT time to prevent confusion due to time zone crossing. See the UPS1121 flight status page for this flight to view local times or setup timezone preferences in your user account.

Time Position Orientation Groundspeed Altitude Reporting Facility
EDT Latitude Longitude Course Direction KTS MPH feet Rate Location/Type
10:52PM 41.9311 -72.7053 259° West 133 153 1,400  Level Boston Center
10:53PM 41.9228 -72.7639 259° West 157 181 2,800 1,800 Climbing Boston Center
10:58PM 41.8840 -73.3600 259° West 387 445 13,100 1,680 Climbing FlightAware
10:59PM 41.8470 -73.4310 235° Southwest 388 447 13,200 2,400 Climbing FlightAware
11:00PM 41.7980 -73.5360 238° Southwest 398 458 16,600 3,540 Climbing FlightAware
11:01PM 41.7420 -73.6110 225° Southwest 419 482 18,100 2,040 Climbing FlightAware
11:01PM 41.6650 -73.6510 201° Southwest 426 490 19,500 1,800 Climbing FlightAware
11:02PM 41.5960 -73.7170 216° Southwest 424 488 20,700 1,620 Climbing FlightAware
11:02PM 41.5817 -73.7373 227° Southwest 426 490 21,000 1,620 Climbing FlightAware ADS-B
11:03PM 41.5405 -73.7953 227° Southwest 431 496 21,800 1,620 Climbing FlightAware ADS-B
11:03PM 41.4965 -73.8571 226° Southwest 436 502 22,700 1,500 Climbing FlightAware ADS-B
11:03PM 41.4915 -73.8641 226° Southwest 436 502 22,700 1,440 Level FlightAware ADS-B
11:04PM 41.4509 -73.9208 226° Southwest 439 505 23,500 1,560 Climbing FlightAware ADS-B
11:04PM 41.4483 -73.9243 225° Southwest 439 505 23,500 1,200 Level FlightAware ADS-B
11:04PM 41.4028 -73.9879 226° Southwest 444 511 24,200 1,260 Climbing FlightAware ADS-B
11:05PM 41.3585 -74.0500 226° Southwest 449 517 24,900 1,140 Climbing FlightAware ADS-B
11:05PM 41.3145 -74.1118 227° Southwest 456 525 25,400 1,320 Climbing FlightAware ADS-B
11:06PM 41.2688 -74.1759 227° Southwest 463 533 26,300 1,620 Climbing FlightAware ADS-B
11:06PM 41.2496 -74.1999 223° Southwest 468 539 26,600 1,440 Climbing FlightAware ADS-B
11:06PM 41.2275 -74.2217 217° Southwest 474 545 26,900 1,620 Climbing FlightAware ADS-B
11:07PM 41.1662 -74.2714 211° Southwest 480 552 27,800 1,560 Climbing FlightAware ADS-B
11:07PM 41.1479 -74.2861 211° Southwest 478 550 28,000 1,980 Climbing FlightAware ADS-B
11:07PM 41.1091 -74.3173 211° Southwest 478 550 28,800 2,460 Climbing FlightAware ADS-B
11:08PM 41.0750 -74.3452 212° Southwest 480 552 29,600 2,460 Climbing FlightAware ADS-B
11:08PM 41.0543 -74.3623 212° Southwest 469 540 30,100 2,460 Climbing FlightAware ADS-B
11:08PM 41.0194 -74.3917 212° Southwest 464 534 30,900 2,400 Climbing FlightAware ADS-B
11:08PM 40.9992 -74.4090 213° Southwest 462 532 31,300 1,980 Climbing FlightAware ADS-B
11:09PM 40.9438 -74.4568 213° Southwest 460 529 32,300 1,860 Climbing FlightAware ADS-B
11:09PM 40.9212 -74.4769 214° Southwest 458 527 32,700 1,740 Climbing FlightAware ADS-B
11:09PM 40.8993 -74.5015 220° Southwest 455 524 33,100 1,740 Climbing FlightAware ADS-B
11:09PM 40.8845 -74.5228 227° Southwest 454 522 33,400 1,680 Climbing FlightAware ADS-B
11:10PM 40.8631 -74.5651 236° Southwest 452 520 33,900 1,560 Climbing FlightAware ADS-B
11:10PM 40.8368 -74.6463 247° West 452 520 34,700 1,380 Climbing FlightAware ADS-B
11:11PM 40.8137 -74.7241 249° West 453 521 35,400 1,200 Climbing FlightAware ADS-B
11:11PM 40.7893 -74.8038 248° West 455 524 36,000 540 Climbing FlightAware ADS-B
11:12PM 40.7649 -74.8815 248° West 456 525 36,000  Level FlightAware ADS-B
11:12PM 40.7406 -74.9592 248° West 456 525 36,000  Level FlightAware ADS-B
11:13PM 40.7168 -75.0366 248° West 455 524 36,000  Level FlightAware ADS-B
11:13PM 40.6921 -75.1165 248° West 456 525 36,000  Level FlightAware ADS-B
11:14PM 40.6669 -75.1997 248° West 457 526 36,000  Level FlightAware ADS-B
11:14PM 40.6437 -75.2776 249° West 458 527 36,000  Level FlightAware ADS-B
11:15PM 40.6203 -75.3562 249° West 459 528 36,000  Level FlightAware ADS-B
11:15PM 40.5964 -75.4359 248° West 459 528 36,000  Level FlightAware ADS-B
11:16PM 40.5729 -75.5140 248° West 459 528 36,000  Level FlightAware ADS-B
11:16PM 40.5502 -75.5931 249° West 460 529 36,000  Level FlightAware ADS-B
11:17PM 40.5271 -75.6741 249° West 461 531 36,000  Level FlightAware ADS-B
11:17PM 40.5042 -75.7542 249° West 464 534 36,000  Level FlightAware ADS-B
11:18PM 40.4811 -75.8344 249° West 464 534 36,000  Level FlightAware ADS-B
11:18PM 40.4577 -75.9153 249° West 465 535 36,000  Level FlightAware ADS-B
11:19PM 40.4339 -75.9976 249° West 465 535 36,000  Level FlightAware ADS-B
11:19PM 40.4106 -76.0779 249° West 464 534 36,000  Level FlightAware ADS-B
11:20PM 40.3873 -76.1580 249° West 465 535 36,000  Level FlightAware ADS-B
11:20PM 40.3641 -76.2371 249° West 465 535 36,000  Level FlightAware ADS-B
11:21PM 40.3409 -76.3167 249° West 466 536 36,000  Level FlightAware ADS-B
11:21PM 40.3169 -76.3984 249° West 466 536 36,000  Level FlightAware ADS-B
11:22PM 40.2929 -76.4802 249° West 466 536 36,000  Level FlightAware ADS-B
11:22PM 40.2691 -76.5615 249° West 466 536 36,000  Level FlightAware ADS-B
11:23PM 40.2455 -76.6412 249° West 467 537 36,000  Level FlightAware ADS-B
11:23PM 40.2218 -76.7207 249° West 466 536 36,000  Level FlightAware ADS-B
11:24PM 40.1980 -76.8006 249° West 466 536 36,000  Level FlightAware ADS-B
11:24PM 40.1733 -76.8836 249° West 466 536 36,000  Level FlightAware ADS-B
11:25PM 40.1494 -76.9635 249° West 466 536 36,000  Level FlightAware ADS-B
11:25PM 40.1254 -77.0439 249° West 467 537 36,000  Level FlightAware ADS-B
11:26PM 40.1011 -77.1250 249° West 468 539 36,000  Level FlightAware ADS-B
11:26PM 40.0773 -77.2041 249° West 468 539 36,000  Level FlightAware ADS-B
11:27PM 40.0522 -77.2879 249° West 470 541 36,000  Level FlightAware ADS-B
11:28PM 40.0272 -77.3708 249° West 470 541 36,000  Level FlightAware ADS-B
11:28PM 40.0023 -77.4533 249° West 471 542 36,000  Level FlightAware ADS-B
11:29PM 39.9777 -77.5343 248° West 473 544 36,000  Level FlightAware ADS-B
11:29PM 39.9531 -77.6155 248° West 474 545 36,000  Level FlightAware ADS-B
11:30PM 39.9285 -77.6968 248° West 475 547 36,000  Level FlightAware ADS-B
11:30PM 39.8950 -77.8076 249° West 477 549 36,000  Level FlightAware ADS-B
11:31PM 39.8706 -77.8882 248° West 478 550 36,000  Level FlightAware ADS-B
11:32PM 39.8220 -78.0460 248° West 480 552 36,000  Level FlightAware
11:32PM 39.7919 -78.1419 248° West 480 552 36,000  Level FlightAware ADS-B
11:33PM 39.7510 -78.2730 248° West 483 556 36,000  Level FlightAware
11:34PM 39.7175 -78.3794 248° West 486 559 36,000  Level FlightAware ADS-B
11:35PM 39.6800 -78.5000 248° West 486 559 36,000  Level FlightAware
11:35PM 39.6450 -78.6080 247° West 485 558 36,000  Level FlightAware
11:36PM 39.6120 -78.7120 248° West 486 559 36,000  Level FlightAware
11:37PM 39.5700 -78.8420 247° West 487 560 36,000  Level FlightAware
11:37PM 39.5360 -78.9500 248° West 486 559 36,000  Level FlightAware
11:38PM 39.5000 -79.0610 247° West 485 558 36,000  Level FlightAware
11:39PM 39.4630 -79.1740 247° West 484 557 36,000  Level FlightAware
11:39PM 39.4250 -79.2930 248° West 483 556 36,000  Level FlightAware
11:40PM 39.4180 -79.3140 247° West 483 556 36,000  Level FlightAware
11:40PM 39.3720 -79.4530 247° West 481 554 36,000  Level FlightAware
11:41PM 39.3390 -79.5560 248° West 480 552 36,000  Level FlightAware
11:42PM 39.3040 -79.6630 247° West 480 552 36,000  Level FlightAware
11:43PM 39.2650 -79.7800 247° West 478 550 36,000  Level FlightAware
11:43PM 39.2300 -79.8850 247° West 478 550 36,000  Level FlightAware
11:44PM 39.1930 -79.9960 247° West 479 551 36,000  Level FlightAware
11:45PM 39.1560 -80.1060 247° West 479 551 36,000  Level FlightAware
11:45PM 39.1170 -80.2200 246° West 480 552 36,000  Level FlightAware
11:46PM 39.0820 -80.3260 247° West 481 554 36,000  Level FlightAware
11:47PM 39.0440 -80.4360 246° West 483 556 36,000  Level FlightAware
11:47PM 39.0020 -80.5580 246° West 485 558 36,000  Level FlightAware
11:48PM 38.9660 -80.6640 246° West 486 559 36,000  Level FlightAware
11:49PM 38.9290 -80.7710 246° West 488 562 36,000  Level FlightAware
11:50PM 38.8890 -80.8870 246° West 491 565 36,000  Level FlightAware
11:50PM 38.8520 -80.9950 246° West 493 567 36,000  Level FlightAware
11:51PM 38.8130 -81.1070 246° West 495 570 36,000  Level FlightAware
11:52PM 38.7740 -81.2190 246° West 496 571 36,000  Level FlightAware
11:52PM 38.7340 -81.3390 247° West 498 573 36,000  Level FlightAware
11:53PM 38.6980 -81.4610 249° West 500 575 36,000  Level FlightAware
11:54PM 38.6660 -81.5710 250° West 502 578 36,000  Level FlightAware
11:54PM 38.6330 -81.6910 251° West 504 580 36,000  Level FlightAware
11:56PM 38.5712 -81.9114 250° West 506 582 36,000  Level FlightAware ADS-B
11:56PM 38.5940 -81.8290 70° East 506 582 36,000  Level FlightAware
11:57PM 38.5100 -82.1290 250° West 507 583 36,000 -180 Level FlightAware
11:58PM 38.4730 -82.2572 250° West 500 575 35,800 -420 Descending FlightAware ADS-B
11:58PM 38.4489 -82.3409 250° West 498 573 35,500 -720 Descending FlightAware ADS-B
11:59PM 38.4250 -82.4236 250° West 497 572 35,100 -900 Descending FlightAware ADS-B
11:59PM 38.4006 -82.5074 250° West 494 568 34,600 -1,140 Descending FlightAware ADS-B
12:00AM 38.3770 -82.5890 250° West 492 566 34,000 -1,140 Descending FlightAware
12:00AM 38.3480 -82.6880 250° West 491 565 33,400 -900 Descending FlightAware
12:01AM 38.3130 -82.8070 249° West 487 560 32,800 -960 Descending FlightAware
12:02AM 38.2810 -82.9130 249° West 485 558 32,100 -600 Descending FlightAware
12:03AM 38.2450 -83.0360 250° West 484 557 32,000 -120 Descending FlightAware
12:03AM 38.2140 -83.1370 249° West 483 556 32,000  Level FlightAware
12:04AM 38.1773 -83.2603 249° West 484 557 32,000  Level FlightAware ADS-B
12:05AM 38.1520 -83.3450 249° West 483 556 32,000 -180 Level FlightAware
12:05AM 38.1393 -83.3869 249° West 484 557 31,900 -900 Descending FlightAware ADS-B
12:05AM 38.1145 -83.4691 249° West 483 556 31,400 -960 Descending FlightAware ADS-B
12:06AM 38.0875 -83.5580 249° West 482 555 30,900 -1,020 Descending FlightAware ADS-B
12:06AM 38.0611 -83.6445 249° West 480 552 30,300 -1,020 Descending FlightAware ADS-B
12:07AM 38.0333 -83.7355 249° West 480 552 29,800 -1,080 Descending FlightAware ADS-B
12:08AM 37.9965 -83.8554 249° West 480 552 28,900 -1,800 Descending FlightAware ADS-B
12:10AM 37.8898 -84.2012 249° West 477 549 24,500 -1,800 Descending FlightAware ADS-B
12:10AM 37.8648 -84.2821 249° West 475 547 24,000 -660 Descending FlightAware ADS-B
12:11AM 37.8600 -84.2970 248° West 475 547 23,800 -180 Descending FlightAware
12:12AM 37.8160 -84.4350 248° West 475 547 23,800 -3,540 Level FlightAware
12:13AM 37.7560 -84.6300 249° West 452 520 17,700 -4,860 Descending FlightAware
12:14AM 37.7210 -84.7390 248° West 442 509 16,500 -780 Descending FlightAware
12:14AM 37.6890 -84.8390 248° West 442 509 16,500  Level FlightAware
12:15AM 37.6660 -84.9120 248° West 442 509 16,500  Level FlightAware
12:16AM 37.6370 -85.0010 248° West 442 509 16,500  Level FlightAware
12:16AM 37.6140 -85.0750 249° West 442 509 16,500 -4,020 Level FlightAware
12:17AM 37.8270 -85.1940 336° Northwest 387 445 9,800 -4,380 Descending FlightAware
12:18AM 37.8580 -85.2460 307° West 382 440 9,800  Level FlightAware
12:19AM 37.9010 -85.3210 306° West 381 438 9,800  Level FlightAware
12:19AM 37.9260 -85.3650 306° West 386 444 9,800  Level FlightAware
12:20AM 37.9590 -85.4210 307° West 389 448 9,800  Level FlightAware
12:20AM 37.9890 -85.4730 306° West 383 441 9,800  Level FlightAware
12:20AM 38.0160 -85.5210 306° West 343 395 9,800  Level FlightAware
12:21AM 38.0290 -85.5450 305° West 320 368 9,800 -180 Level FlightAware
12:21AM 38.0520 -85.5850 306° West 284 327 9,700 -720 Descending FlightAware
12:22AM 38.0720 -85.6200 306° West 279 321 9,200 -1,500 Descending FlightAware
12:22AM 38.0960 -85.6630 305° West 282 325 8,300 -1,740 Descending FlightAware
12:23AM 38.1150 -85.6960 306° West 280 322 7,600 -1,620 Descending FlightAware
12:23AM 38.1350 -85.7330 305° West 279 321 6,900 -1,440 Descending FlightAware
12:24AM 38.1590 -85.7760 305° West 278 320 6,200 -1,140 Descending FlightAware
12:24AM 38.1790 -85.8130 305° West 263 303 5,800 -600 Descending FlightAware
12:24AM 38.1890 -85.8260 314° West 251 289 5,800  Level FlightAware
12:24AM 38.2020 -85.8350 331° Northwest 243 280 5,800 -900 Level FlightAware
12:25AM 38.2330 -85.8520 337° Northwest 244 281 5,200 -1,080 Descending FlightAware
12:25AM 38.2610 -85.8660 339° North 250 288 4,800 -660 Descending FlightAware
12:26AM 38.2730 -85.8730 335° Northwest 250 288 4,800 -180 Level FlightAware
12:26AM 38.3100 -85.8920 338° Northwest 248 285 4,700 -660 Descending FlightAware
12:27AM 38.3360 -85.9050 339° North 248 285 4,200 -1,200 Descending FlightAware
12:27AM 38.3530 -85.9140 337° Northwest 249 287 3,900 -900 Descending FlightAware
12:27AM 38.3660 -85.9180 346° North 249 287 3,800 -900 Descending FlightAware
12:27AM 38.3930 -85.9040 22° Northeast 237 273 3,300 -1,200 Descending FlightAware
12:28AM 38.4010 -85.8820 65° Northeast 229 264 2,900 -720 Descending FlightAware
12:28AM 38.3900 -85.8500 114° Southeast 220 253 2,800 -120 Descending FlightAware
12:29AM 38.3700 -85.8240 134° Southeast 223 257 2,800  Level FlightAware
12:29AM 38.3470 -85.8020 143° Southeast 212 244 2,800  Level FlightAware
12:30AM 38.3220 -85.7940 166° South 184 212 2,800 -240 Level FlightAware
12:30AM 38.3000 -85.7860 164° South 171 197 2,600 -660 Descending FlightAware
12:31AM 38.2800 -85.7790 165° South 157 181 2,200 -900 Descending FlightAware
12:31AM 38.2710 -85.7770 170° South 154 177 2,000 -720 Descending FlightAware
12:31AM 38.2520 -85.7700 164° South 138 159 1,700 -660 Descending FlightAware
12:32AM 38.2360 -85.7650 166° South 114 131 1,400 -660 Descending FlightAware
12:32AM 38.2220 -85.7600 164° South 112 129 1,100 -660 Descending FlightAware
12:33AM 38.2070 -85.7550 165° South 115 132 800 -660 Descending FlightAware
12:33AM 38.1930 -85.7510 167° South 117 135 500 -360 Descending FlightAware
12:34AM 38.1730 -85.7440 165° South 119 137 400 -180 Descending FlightAware
12:34AM 38.1690 -85.7420 159° South 24 28 -900 Descending FlightAware
12:35AM 38.1670 -85.7370 117° Southeast 34 39  Level FlightAware